sensor_id;sensor_type;location;lat;lon;timestamp;P1;durP1;ratioP1;P2;durP2;ratioP2
27428;SDS011;14881;48.092;11.574;2024-01-06T00:02:05;22.80;;;16.35;;
27428;SDS011;14881;48.092;11.574;2024-01-06T00:04:33;25.83;;;17.50;;
27428;SDS011;14881;48.092;11.574;2024-01-06T00:07:00;25.70;;;17.77;;
27428;SDS011;14881;48.092;11.574;2024-01-06T00:09:28;27.55;;;18.58;;
27428;SDS011;14881;48.092;11.574;2024-01-06T00:11:57;27.00;;;17.77;;
27428;SDS011;14881;48.092;11.574;2024-01-06T00:14:25;27.77;;;18.95;;
27428;SDS011;14881;48.092;11.574;2024-01-06T00:16:53;24.42;;;17.08;;
27428;SDS011;14881;48.092;11.574;2024-01-06T00:19:21;26.60;;;17.60;;
27428;SDS011;14881;48.092;11.574;2024-01-06T00:21:49;28.35;;;19.42;;
27428;SDS011;14881;48.092;11.574;2024-01-06T00:24:16;27.75;;;18.77;;
27428;SDS011;14881;48.092;11.574;2024-01-06T00:26:44;20.48;;;14.48;;
27428;SDS011;14881;48.092;11.574;2024-01-06T00:29:13;23.95;;;18.00;;
27428;SDS011;14881;48.092;11.574;2024-01-06T00:31:41;31.58;;;20.35;;
27428;SDS011;14881;48.092;11.574;2024-01-06T00:34:09;28.45;;;19.55;;
27428;SDS011;14881;48.092;11.574;2024-01-06T00:36:37;25.90;;;17.98;;
27428;SDS011;14881;48.092;11.574;2024-01-06T00:39:05;23.48;;;16.63;;
27428;SDS011;14881;48.092;11.574;2024-01-06T00:41:32;26.20;;;16.73;;
27428;SDS011;14881;48.092;11.574;2024-01-06T00:44:00;26.95;;;17.08;;
27428;SDS011;14881;48.092;11.574;2024-01-06T00:46:29;25.67;;;16.67;;
27428;SDS011;14881;48.092;11.574;2024-01-06T00:48:57;21.08;;;14.27;;
27428;SDS011;14881;48.092;11.574;2024-01-06T00:51:25;21.55;;;14.50;;
27428;SDS011;14881;48.092;11.574;2024-01-06T00:53:53;22.80;;;14.93;;
27428;SDS011;14881;48.092;11.574;2024-01-06T00:56:21;23.88;;;14.43;;
27428;SDS011;14881;48.092;11.574;2024-01-06T00:58:49;20.48;;;13.43;;
27428;SDS011;14881;48.092;11.574;2024-01-06T01:01:16;17.60;;;11.75;;
27428;SDS011;14881;48.092;11.574;2024-01-06T01:03:46;13.88;;;9.65;;
27428;SDS011;14881;48.092;11.574;2024-01-06T01:06:14;13.82;;;9.13;;
27428;SDS011;14881;48.092;11.574;2024-01-06T01:08:42;14.70;;;9.25;;
27428;SDS011;14881;48.092;11.574;2024-01-06T01:11:09;14.23;;;10.32;;
27428;SDS011;14881;48.092;11.574;2024-01-06T01:13:37;16.67;;;9.98;;
27428;SDS011;14881;48.092;11.574;2024-01-06T01:16:05;12.38;;;8.52;;
27428;SDS011;14881;48.092;11.574;2024-01-06T01:18:33;11.65;;;8.95;;
27428;SDS011;14881;48.092;11.574;2024-01-06T01:21:03;10.45;;;7.45;;
27428;SDS011;14881;48.092;11.574;2024-01-06T01:23:30;11.75;;;8.48;;
27428;SDS011;14881;48.092;11.574;2024-01-06T01:25:58;13.38;;;8.60;;
27428;SDS011;14881;48.092;11.574;2024-01-06T01:28:26;13.57;;;8.13;;
27428;SDS011;14881;48.092;11.574;2024-01-06T01:30:54;12.18;;;8.30;;
27428;SDS011;14881;48.092;11.574;2024-01-06T01:33:22;15.20;;;8.93;;
27428;SDS011;14881;48.092;11.574;2024-01-06T01:35:50;12.73;;;9.05;;
27428;SDS011;14881;48.092;11.574;2024-01-06T01:38:19;13.90;;;8.80;;
27428;SDS011;14881;48.092;11.574;2024-01-06T01:40:47;14.50;;;8.60;;
27428;SDS011;14881;48.092;11.574;2024-01-06T01:43:15;11.65;;;8.02;;
27428;SDS011;14881;48.092;11.574;2024-01-06T01:45:44;12.35;;;8.30;;
27428;SDS011;14881;48.092;11.574;2024-01-06T01:48:14;12.02;;;7.82;;
27428;SDS011;14881;48.092;11.574;2024-01-06T01:50:42;10.77;;;8.32;;
27428;SDS011;14881;48.092;11.574;2024-01-06T01:53:10;12.32;;;8.60;;
27428;SDS011;14881;48.092;11.574;2024-01-06T01:55:41;11.90;;;8.32;;
27428;SDS011;14881;48.092;11.574;2024-01-06T01:58:09;11.75;;;8.25;;
27428;SDS011;14881;48.092;11.574;2024-01-06T02:00:39;12.80;;;8.63;;
27428;SDS011;14881;48.092;11.574;2024-01-06T02:03:07;16.17;;;8.85;;
27428;SDS011;14881;48.092;11.574;2024-01-06T02:05:36;12.85;;;7.93;;
27428;SDS011;14881;48.092;11.574;2024-01-06T02:08:04;11.90;;;8.02;;
27428;SDS011;14881;48.092;11.574;2024-01-06T02:10:33;11.70;;;8.45;;
27428;SDS011;14881;48.092;11.574;2024-01-06T02:13:08;12.05;;;8.20;;
27428;SDS011;14881;48.092;11.574;2024-01-06T02:15:37;13.20;;;9.07;;
27428;SDS011;14881;48.092;11.574;2024-01-06T02:18:05;15.57;;;9.15;;
27428;SDS011;14881;48.092;11.574;2024-01-06T02:20:34;15.30;;;9.30;;
27428;SDS011;14881;48.092;11.574;2024-01-06T02:23:03;15.40;;;8.93;;
27428;SDS011;14881;48.092;11.574;2024-01-06T02:25:31;12.63;;;8.25;;
27428;SDS011;14881;48.092;11.574;2024-01-06T02:27:59;12.98;;;9.15;;
27428;SDS011;14881;48.092;11.574;2024-01-06T02:30:27;14.00;;;8.52;;
27428;SDS011;14881;48.092;11.574;2024-01-06T02:32:55;13.40;;;9.20;;
27428;SDS011;14881;48.092;11.574;2024-01-06T02:35:23;17.80;;;9.48;;
27428;SDS011;14881;48.092;11.574;2024-01-06T02:37:51;15.98;;;9.43;;
27428;SDS011;14881;48.092;11.574;2024-01-06T02:40:20;13.27;;;8.75;;
27428;SDS011;14881;48.092;11.574;2024-01-06T02:42:48;12.93;;;9.07;;
27428;SDS011;14881;48.092;11.574;2024-01-06T02:45:16;13.50;;;9.10;;
27428;SDS011;14881;48.092;11.574;2024-01-06T02:47:43;14.23;;;9.15;;
27428;SDS011;14881;48.092;11.574;2024-01-06T02:50:11;11.35;;;7.65;;
27428;SDS011;14881;48.092;11.574;2024-01-06T02:52:39;13.23;;;8.00;;
27428;SDS011;14881;48.092;11.574;2024-01-06T02:55:07;9.75;;;7.43;;
27428;SDS011;14881;48.092;11.574;2024-01-06T02:57:37;10.18;;;6.95;;
27428;SDS011;14881;48.092;11.574;2024-01-06T03:00:05;10.35;;;6.68;;
27428;SDS011;14881;48.092;11.574;2024-01-06T03:02:34;9.55;;;6.57;;
27428;SDS011;14881;48.092;11.574;2024-01-06T03:05:04;11.73;;;6.10;;
27428;SDS011;14881;48.092;11.574;2024-01-06T03:07:32;13.45;;;7.80;;
27428;SDS011;14881;48.092;11.574;2024-01-06T03:10:00;9.55;;;6.90;;
27428;SDS011;14881;48.092;11.574;2024-01-06T03:12:28;8.82;;;5.82;;
27428;SDS011;14881;48.092;11.574;2024-01-06T03:14:58;10.10;;;6.13;;
27428;SDS011;14881;48.092;11.574;2024-01-06T03:17:25;8.80;;;6.28;;
27428;SDS011;14881;48.092;11.574;2024-01-06T03:19:56;12.90;;;6.95;;
27428;SDS011;14881;48.092;11.574;2024-01-06T03:22:24;7.20;;;5.00;;
27428;SDS011;14881;48.092;11.574;2024-01-06T03:24:52;5.88;;;4.60;;
27428;SDS011;14881;48.092;11.574;2024-01-06T03:27:20;6.90;;;4.70;;
27428;SDS011;14881;48.092;11.574;2024-01-06T03:29:47;6.90;;;4.53;;
27428;SDS011;14881;48.092;11.574;2024-01-06T03:32:17;5.65;;;4.32;;
27428;SDS011;14881;48.092;11.574;2024-01-06T03:34:45;5.15;;;4.10;;
27428;SDS011;14881;48.092;11.574;2024-01-06T03:37:13;6.78;;;3.53;;
27428;SDS011;14881;48.092;11.574;2024-01-06T03:39:40;5.20;;;3.67;;
27428;SDS011;14881;48.092;11.574;2024-01-06T03:42:08;4.18;;;3.38;;
27428;SDS011;14881;48.092;11.574;2024-01-06T03:44:36;4.28;;;3.85;;
27428;SDS011;14881;48.092;11.574;2024-01-06T03:47:04;4.72;;;3.15;;
27428;SDS011;14881;48.092;11.574;2024-01-06T03:49:33;3.08;;;2.78;;
27428;SDS011;14881;48.092;11.574;2024-01-06T03:52:01;4.10;;;2.90;;
27428;SDS011;14881;48.092;11.574;2024-01-06T03:54:29;4.10;;;2.90;;
27428;SDS011;14881;48.092;11.574;2024-01-06T03:56:57;2.35;;;2.15;;
27428;SDS011;14881;48.092;11.574;2024-01-06T03:59:25;4.15;;;2.80;;
27428;SDS011;14881;48.092;11.574;2024-01-06T04:01:52;3.65;;;2.47;;
27428;SDS011;14881;48.092;11.574;2024-01-06T04:04:20;3.35;;;2.50;;
27428;SDS011;14881;48.092;11.574;2024-01-06T04:06:50;3.22;;;2.58;;
27428;SDS011;14881;48.092;11.574;2024-01-06T04:09:18;2.70;;;2.10;;
27428;SDS011;14881;48.092;11.574;2024-01-06T04:11:45;3.63;;;2.40;;
27428;SDS011;14881;48.092;11.574;2024-01-06T04:14:13;2.58;;;2.10;;
27428;SDS011;14881;48.092;11.574;2024-01-06T04:16:41;2.33;;;1.70;;
27428;SDS011;14881;48.092;11.574;2024-01-06T04:19:09;2.58;;;2.00;;
27428;SDS011;14881;48.092;11.574;2024-01-06T04:21:39;2.75;;;1.75;;
27428;SDS011;14881;48.092;11.574;2024-01-06T04:24:08;1.77;;;1.42;;
27428;SDS011;14881;48.092;11.574;2024-01-06T04:26:36;2.72;;;1.60;;
27428;SDS011;14881;48.092;11.574;2024-01-06T04:29:04;1.63;;;1.50;;
27428;SDS011;14881;48.092;11.574;2024-01-06T04:31:31;1.55;;;1.42;;
27428;SDS011;14881;48.092;11.574;2024-01-06T04:33:59;2.17;;;1.50;;
27428;SDS011;14881;48.092;11.574;2024-01-06T04:36:27;1.73;;;1.60;;
27428;SDS011;14881;48.092;11.574;2024-01-06T04:38:55;2.65;;;1.80;;
27428;SDS011;14881;48.092;11.574;2024-01-06T04:41:24;2.10;;;1.90;;
27428;SDS011;14881;48.092;11.574;2024-01-06T04:43:52;3.22;;;1.88;;
27428;SDS011;14881;48.092;11.574;2024-01-06T04:46:20;2.05;;;1.80;;
27428;SDS011;14881;48.092;11.574;2024-01-06T04:48:48;3.03;;;2.30;;
27428;SDS011;14881;48.092;11.574;2024-01-06T04:51:16;2.28;;;2.00;;
27428;SDS011;14881;48.092;11.574;2024-01-06T04:53:44;2.15;;;1.48;;
27428;SDS011;14881;48.092;11.574;2024-01-06T04:56:11;1.42;;;1.33;;
27428;SDS011;14881;48.092;11.574;2024-01-06T04:58:40;1.48;;;1.20;;
27428;SDS011;14881;48.092;11.574;2024-01-06T05:01:08;1.70;;;1.23;;
27428;SDS011;14881;48.092;11.574;2024-01-06T05:03:36;1.45;;;1.13;;
27428;SDS011;14881;48.092;11.574;2024-01-06T05:06:04;1.13;;;1.08;;
27428;SDS011;14881;48.092;11.574;2024-01-06T05:08:32;1.30;;;1.20;;
27428;SDS011;14881;48.092;11.574;2024-01-06T05:11:00;1.60;;;1.50;;
27428;SDS011;14881;48.092;11.574;2024-01-06T05:13:28;1.20;;;1.10;;
27428;SDS011;14881;48.092;11.574;2024-01-06T05:15:57;1.30;;;1.20;;
27428;SDS011;14881;48.092;11.574;2024-01-06T05:18:25;1.30;;;1.20;;
27428;SDS011;14881;48.092;11.574;2024-01-06T05:20:53;1.30;;;1.20;;
27428;SDS011;14881;48.092;11.574;2024-01-06T05:23:21;1.52;;;1.40;;
27428;SDS011;14881;48.092;11.574;2024-01-06T05:25:48;2.15;;;1.30;;
27428;SDS011;14881;48.092;11.574;2024-01-06T05:28:16;1.45;;;1.25;;
27428;SDS011;14881;48.092;11.574;2024-01-06T05:30:44;1.70;;;1.60;;
27428;SDS011;14881;48.092;11.574;2024-01-06T05:33:15;3.58;;;1.48;;
27428;SDS011;14881;48.092;11.574;2024-01-06T05:35:43;1.60;;;1.50;;
27428;SDS011;14881;48.092;11.574;2024-01-06T05:38:11;1.88;;;1.40;;
27428;SDS011;14881;48.092;11.574;2024-01-06T05:40:39;2.00;;;1.80;;
27428;SDS011;14881;48.092;11.574;2024-01-06T05:43:07;1.60;;;1.50;;
27428;SDS011;14881;48.092;11.574;2024-01-06T05:45:34;2.40;;;1.88;;
27428;SDS011;14881;48.092;11.574;2024-01-06T05:48:03;1.63;;;1.52;;
27428;SDS011;14881;48.092;11.574;2024-01-06T05:50:37;1.42;;;1.33;;
27428;SDS011;14881;48.092;11.574;2024-01-06T05:53:05;1.30;;;1.20;;
27428;SDS011;14881;48.092;11.574;2024-01-06T05:55:33;1.80;;;1.50;;
27428;SDS011;14881;48.092;11.574;2024-01-06T05:58:01;1.70;;;1.60;;
27428;SDS011;14881;48.092;11.574;2024-01-06T06:00:29;1.90;;;1.80;;
27428;SDS011;14881;48.092;11.574;2024-01-06T06:02:57;2.17;;;1.98;;
27428;SDS011;14881;48.092;11.574;2024-01-06T06:05:25;2.05;;;1.85;;
27428;SDS011;14881;48.092;11.574;2024-01-06T06:07:55;1.83;;;1.58;;
27428;SDS011;14881;48.092;11.574;2024-01-06T06:10:22;2.03;;;1.88;;
27428;SDS011;14881;48.092;11.574;2024-01-06T06:12:56;2.88;;;1.77;;
27428;SDS011;14881;48.092;11.574;2024-01-06T06:15:24;1.77;;;1.60;;
27428;SDS011;14881;48.092;11.574;2024-01-06T06:17:52;2.22;;;2.03;;
27428;SDS011;14881;48.092;11.574;2024-01-06T06:20:20;2.67;;;1.67;;
27428;SDS011;14881;48.092;11.574;2024-01-06T06:22:48;2.85;;;2.40;;
27428;SDS011;14881;48.092;11.574;2024-01-06T06:25:17;2.33;;;2.13;;
27428;SDS011;14881;48.092;11.574;2024-01-06T06:27:44;5.75;;;2.95;;
27428;SDS011;14881;48.092;11.574;2024-01-06T06:30:12;4.82;;;3.65;;
27428;SDS011;14881;48.092;11.574;2024-01-06T06:32:41;4.70;;;3.20;;
27428;SDS011;14881;48.092;11.574;2024-01-06T06:35:09;3.50;;;3.20;;
27428;SDS011;14881;48.092;11.574;2024-01-06T06:37:36;5.47;;;3.60;;
27428;SDS011;14881;48.092;11.574;2024-01-06T06:40:05;4.68;;;3.80;;
27428;SDS011;14881;48.092;11.574;2024-01-06T06:42:35;6.88;;;4.15;;
27428;SDS011;14881;48.092;11.574;2024-01-06T06:45:03;4.45;;;3.95;;
27428;SDS011;14881;48.092;11.574;2024-01-06T06:47:31;6.05;;;4.95;;
27428;SDS011;14881;48.092;11.574;2024-01-06T06:49:59;7.45;;;5.72;;
27428;SDS011;14881;48.092;11.574;2024-01-06T06:52:27;6.97;;;5.60;;
27428;SDS011;14881;48.092;11.574;2024-01-06T06:54:55;7.75;;;6.28;;
27428;SDS011;14881;48.092;11.574;2024-01-06T06:57:24;6.90;;;5.32;;
27428;SDS011;14881;48.092;11.574;2024-01-06T06:59:53;8.88;;;5.22;;
27428;SDS011;14881;48.092;11.574;2024-01-06T07:02:21;9.18;;;6.20;;
27428;SDS011;14881;48.092;11.574;2024-01-06T07:04:49;7.43;;;6.47;;
27428;SDS011;14881;48.092;11.574;2024-01-06T07:07:17;8.35;;;7.05;;
27428;SDS011;14881;48.092;11.574;2024-01-06T07:09:45;7.93;;;6.65;;
27428;SDS011;14881;48.092;11.574;2024-01-06T07:12:12;8.57;;;6.28;;
27428;SDS011;14881;48.092;11.574;2024-01-06T07:14:40;9.50;;;6.22;;
27428;SDS011;14881;48.092;11.574;2024-01-06T07:17:09;9.38;;;6.60;;
27428;SDS011;14881;48.092;11.574;2024-01-06T07:19:37;11.38;;;7.80;;
27428;SDS011;14881;48.092;11.574;2024-01-06T07:22:05;7.85;;;6.18;;
27428;SDS011;14881;48.092;11.574;2024-01-06T07:24:33;9.02;;;6.35;;
27428;SDS011;14881;48.092;11.574;2024-01-06T07:27:03;10.75;;;6.80;;
27428;SDS011;14881;48.092;11.574;2024-01-06T07:29:30;8.23;;;6.40;;
27428;SDS011;14881;48.092;11.574;2024-01-06T07:31:58;7.80;;;5.93;;
27428;SDS011;14881;48.092;11.574;2024-01-06T07:34:27;8.30;;;6.43;;
27428;SDS011;14881;48.092;11.574;2024-01-06T07:36:56;8.93;;;5.90;;
27428;SDS011;14881;48.092;11.574;2024-01-06T07:39:24;7.30;;;5.70;;
27428;SDS011;14881;48.092;11.574;2024-01-06T07:41:52;7.15;;;6.30;;
27428;SDS011;14881;48.092;11.574;2024-01-06T07:44:20;6.70;;;5.75;;
27428;SDS011;14881;48.092;11.574;2024-01-06T07:46:51;12.05;;;6.40;;
27428;SDS011;14881;48.092;11.574;2024-01-06T07:49:19;12.02;;;7.90;;
27428;SDS011;14881;48.092;11.574;2024-01-06T07:51:49;14.40;;;8.98;;
27428;SDS011;14881;48.092;11.574;2024-01-06T07:54:17;15.07;;;9.00;;
27428;SDS011;14881;48.092;11.574;2024-01-06T07:56:44;12.82;;;9.07;;
27428;SDS011;14881;48.092;11.574;2024-01-06T07:59:13;13.00;;;7.47;;
27428;SDS011;14881;48.092;11.574;2024-01-06T08:01:41;13.43;;;8.88;;
27428;SDS011;14881;48.092;11.574;2024-01-06T08:04:10;14.27;;;8.82;;
27428;SDS011;14881;48.092;11.574;2024-01-06T08:06:38;10.20;;;8.90;;
27428;SDS011;14881;48.092;11.574;2024-01-06T08:09:07;14.10;;;10.07;;
27428;SDS011;14881;48.092;11.574;2024-01-06T08:11:36;14.10;;;9.25;;
27428;SDS011;14881;48.092;11.574;2024-01-06T08:14:03;9.50;;;8.25;;
27428;SDS011;14881;48.092;11.574;2024-01-06T08:16:31;11.45;;;8.77;;
27428;SDS011;14881;48.092;11.574;2024-01-06T08:18:59;11.05;;;8.05;;
27428;SDS011;14881;48.092;11.574;2024-01-06T08:21:27;11.00;;;8.20;;
27428;SDS011;14881;48.092;11.574;2024-01-06T08:23:55;12.60;;;7.53;;
27428;SDS011;14881;48.092;11.574;2024-01-06T08:26:24;10.57;;;7.80;;
27428;SDS011;14881;48.092;11.574;2024-01-06T08:28:52;12.45;;;7.93;;
27428;SDS011;14881;48.092;11.574;2024-01-06T08:31:20;10.85;;;7.63;;
27428;SDS011;14881;48.092;11.574;2024-01-06T08:33:49;15.65;;;8.15;;
27428;SDS011;14881;48.092;11.574;2024-01-06T08:36:17;9.20;;;7.72;;
27428;SDS011;14881;48.092;11.574;2024-01-06T08:38:45;10.07;;;6.38;;
27428;SDS011;14881;48.092;11.574;2024-01-06T08:41:13;9.93;;;6.22;;
27428;SDS011;14881;48.092;11.574;2024-01-06T08:43:42;8.75;;;6.03;;
27428;SDS011;14881;48.092;11.574;2024-01-06T08:46:10;7.90;;;5.63;;
27428;SDS011;14881;48.092;11.574;2024-01-06T08:48:38;8.25;;;5.70;;
27428;SDS011;14881;48.092;11.574;2024-01-06T08:51:06;6.90;;;5.10;;
27428;SDS011;14881;48.092;11.574;2024-01-06T08:53:33;7.25;;;5.00;;
27428;SDS011;14881;48.092;11.574;2024-01-06T08:56:01;8.82;;;4.95;;
27428;SDS011;14881;48.092;11.574;2024-01-06T08:58:29;7.97;;;5.25;;
27428;SDS011;14881;48.092;11.574;2024-01-06T09:00:58;7.78;;;5.53;;
27428;SDS011;14881;48.092;11.574;2024-01-06T09:03:26;9.52;;;5.30;;
27428;SDS011;14881;48.092;11.574;2024-01-06T09:05:55;12.23;;;5.63;;
27428;SDS011;14881;48.092;11.574;2024-01-06T09:08:23;7.18;;;4.70;;
27428;SDS011;14881;48.092;11.574;2024-01-06T09:10:51;8.32;;;5.50;;
27428;SDS011;14881;48.092;11.574;2024-01-06T09:13:23;7.13;;;5.03;;
27428;SDS011;14881;48.092;11.574;2024-01-06T09:15:51;12.65;;;6.25;;
27428;SDS011;14881;48.092;11.574;2024-01-06T09:18:20;9.68;;;5.82;;
27428;SDS011;14881;48.092;11.574;2024-01-06T09:20:49;11.73;;;6.13;;
27428;SDS011;14881;48.092;11.574;2024-01-06T09:23:16;7.00;;;5.82;;
27428;SDS011;14881;48.092;11.574;2024-01-06T09:25:47;10.30;;;5.68;;
27428;SDS011;14881;48.092;11.574;2024-01-06T09:28:18;13.70;;;6.18;;
27428;SDS011;14881;48.092;11.574;2024-01-06T09:30:48;12.35;;;5.88;;
27428;SDS011;14881;48.092;11.574;2024-01-06T09:33:20;8.82;;;5.45;;
27428;SDS011;14881;48.092;11.574;2024-01-06T09:35:48;7.85;;;5.60;;
27428;SDS011;14881;48.092;11.574;2024-01-06T09:38:18;8.57;;;5.55;;
27428;SDS011;14881;48.092;11.574;2024-01-06T09:40:45;7.13;;;4.85;;
27428;SDS011;14881;48.092;11.574;2024-01-06T09:43:14;7.93;;;5.20;;
27428;SDS011;14881;48.092;11.574;2024-01-06T09:45:41;7.57;;;5.07;;
27428;SDS011;14881;48.092;11.574;2024-01-06T09:48:10;8.50;;;4.72;;
27428;SDS011;14881;48.092;11.574;2024-01-06T09:50:42;8.15;;;5.10;;
27428;SDS011;14881;48.092;11.574;2024-01-06T09:53:11;7.10;;;5.13;;
27428;SDS011;14881;48.092;11.574;2024-01-06T09:55:40;9.77;;;5.15;;
27428;SDS011;14881;48.092;11.574;2024-01-06T09:58:08;11.63;;;6.22;;
27428;SDS011;14881;48.092;11.574;2024-01-06T10:00:37;13.00;;;6.00;;
27428;SDS011;14881;48.092;11.574;2024-01-06T10:03:05;9.85;;;5.90;;
27428;SDS011;14881;48.092;11.574;2024-01-06T10:05:34;12.07;;;7.00;;
27428;SDS011;14881;48.092;11.574;2024-01-06T10:08:04;10.68;;;7.47;;
27428;SDS011;14881;48.092;11.574;2024-01-06T10:10:32;10.00;;;6.70;;
27428;SDS011;14881;48.092;11.574;2024-01-06T10:13:01;8.70;;;5.97;;
27428;SDS011;14881;48.092;11.574;2024-01-06T10:15:29;13.82;;;8.00;;
27428;SDS011;14881;48.092;11.574;2024-01-06T10:17:57;13.20;;;7.60;;
27428;SDS011;14881;48.092;11.574;2024-01-06T10:20:25;9.77;;;6.38;;
27428;SDS011;14881;48.092;11.574;2024-01-06T10:22:54;9.43;;;6.85;;
27428;SDS011;14881;48.092;11.574;2024-01-06T10:25:24;10.20;;;7.57;;
27428;SDS011;14881;48.092;11.574;2024-01-06T10:27:52;13.88;;;7.00;;
27428;SDS011;14881;48.092;11.574;2024-01-06T10:30:20;11.55;;;7.72;;
27428;SDS011;14881;48.092;11.574;2024-01-06T10:32:49;9.75;;;6.95;;
27428;SDS011;14881;48.092;11.574;2024-01-06T10:35:17;11.27;;;7.03;;
27428;SDS011;14881;48.092;11.574;2024-01-06T10:37:45;13.02;;;6.93;;
27428;SDS011;14881;48.092;11.574;2024-01-06T10:40:16;8.63;;;6.10;;
27428;SDS011;14881;48.092;11.574;2024-01-06T10:42:45;13.00;;;8.13;;
27428;SDS011;14881;48.092;11.574;2024-01-06T10:45:13;13.18;;;7.40;;
27428;SDS011;14881;48.092;11.574;2024-01-06T10:47:42;14.55;;;6.88;;
27428;SDS011;14881;48.092;11.574;2024-01-06T10:50:11;12.20;;;7.22;;
27428;SDS011;14881;48.092;11.574;2024-01-06T10:52:40;13.15;;;8.25;;
27428;SDS011;14881;48.092;11.574;2024-01-06T10:55:09;11.60;;;8.35;;
27428;SDS011;14881;48.092;11.574;2024-01-06T10:57:37;14.77;;;8.93;;
27428;SDS011;14881;48.092;11.574;2024-01-06T11:00:09;11.88;;;8.82;;
27428;SDS011;14881;48.092;11.574;2024-01-06T11:02:37;13.18;;;8.07;;
27428;SDS011;14881;48.092;11.574;2024-01-06T11:05:06;12.45;;;7.95;;
27428;SDS011;14881;48.092;11.574;2024-01-06T11:07:37;9.73;;;7.32;;
27428;SDS011;14881;48.092;11.574;2024-01-06T11:10:09;13.45;;;7.60;;
27428;SDS011;14881;48.092;11.574;2024-01-06T11:12:41;10.55;;;7.60;;
27428;SDS011;14881;48.092;11.574;2024-01-06T11:15:11;13.13;;;7.93;;
27428;SDS011;14881;48.092;11.574;2024-01-06T11:18:08;12.82;;;7.72;;
27428;SDS011;14881;48.092;11.574;2024-01-06T11:20:37;11.93;;;7.40;;
27428;SDS011;14881;48.092;11.574;2024-01-06T11:23:17;16.83;;;7.50;;
27428;SDS011;14881;48.092;11.574;2024-01-06T11:25:47;12.90;;;7.50;;
27428;SDS011;14881;48.092;11.574;2024-01-06T11:28:16;13.82;;;8.25;;
27428;SDS011;14881;48.092;11.574;2024-01-06T11:30:46;12.27;;;7.85;;
27428;SDS011;14881;48.092;11.574;2024-01-06T11:33:16;16.63;;;8.05;;
27428;SDS011;14881;48.092;11.574;2024-01-06T11:35:45;15.00;;;9.13;;
27428;SDS011;14881;48.092;11.574;2024-01-06T11:38:16;13.02;;;8.48;;
27428;SDS011;14881;48.092;11.574;2024-01-06T11:40:44;14.60;;;8.10;;
27428;SDS011;14881;48.092;11.574;2024-01-06T11:43:12;14.48;;;8.57;;
27428;SDS011;14881;48.092;11.574;2024-01-06T11:45:41;12.10;;;7.90;;
27428;SDS011;14881;48.092;11.574;2024-01-06T11:48:11;8.02;;;6.47;;
27428;SDS011;14881;48.092;11.574;2024-01-06T11:50:40;17.90;;;7.65;;
27428;SDS011;14881;48.092;11.574;2024-01-06T11:53:08;11.82;;;7.50;;
27428;SDS011;14881;48.092;11.574;2024-01-06T11:55:38;15.95;;;8.80;;
27428;SDS011;14881;48.092;11.574;2024-01-06T11:58:06;17.48;;;9.15;;
27428;SDS011;14881;48.092;11.574;2024-01-06T12:00:34;16.90;;;8.93;;
27428;SDS011;14881;48.092;11.574;2024-01-06T12:03:06;14.35;;;8.98;;
27428;SDS011;14881;48.092;11.574;2024-01-06T12:05:35;12.63;;;9.48;;
27428;SDS011;14881;48.092;11.574;2024-01-06T12:08:03;18.00;;;9.95;;
27428;SDS011;14881;48.092;11.574;2024-01-06T12:10:34;23.08;;;11.25;;
27428;SDS011;14881;48.092;11.574;2024-01-06T12:13:04;17.65;;;10.32;;
27428;SDS011;14881;48.092;11.574;2024-01-06T12:15:35;17.23;;;9.95;;
27428;SDS011;14881;48.092;11.574;2024-01-06T12:18:06;21.02;;;11.23;;
27428;SDS011;14881;48.092;11.574;2024-01-06T12:20:36;18.55;;;11.50;;
27428;SDS011;14881;48.092;11.574;2024-01-06T12:23:04;18.42;;;12.98;;
27428;SDS011;14881;48.092;11.574;2024-01-06T12:25:34;17.60;;;13.13;;
27428;SDS011;14881;48.092;11.574;2024-01-06T12:28:06;19.67;;;14.48;;
27428;SDS011;14881;48.092;11.574;2024-01-06T12:30:34;23.80;;;13.15;;
27428;SDS011;14881;48.092;11.574;2024-01-06T12:33:03;22.77;;;15.07;;
27428;SDS011;14881;48.092;11.574;2024-01-06T12:35:32;24.05;;;14.38;;
27428;SDS011;14881;48.092;11.574;2024-01-06T12:38:02;24.67;;;13.82;;
27428;SDS011;14881;48.092;11.574;2024-01-06T12:40:32;14.13;;;9.73;;
27428;SDS011;14881;48.092;11.574;2024-01-06T12:43:00;18.75;;;11.80;;
27428;SDS011;14881;48.092;11.574;2024-01-06T12:45:28;15.32;;;10.68;;
27428;SDS011;14881;48.092;11.574;2024-01-06T12:47:55;16.52;;;10.52;;
27428;SDS011;14881;48.092;11.574;2024-01-06T12:50:23;16.35;;;10.65;;
27428;SDS011;14881;48.092;11.574;2024-01-06T12:52:51;15.10;;;10.70;;
27428;SDS011;14881;48.092;11.574;2024-01-06T12:55:20;14.75;;;10.52;;
27428;SDS011;14881;48.092;11.574;2024-01-06T12:57:48;16.52;;;11.13;;
27428;SDS011;14881;48.092;11.574;2024-01-06T13:00:16;19.40;;;11.32;;
27428;SDS011;14881;48.092;11.574;2024-01-06T13:02:45;18.08;;;10.13;;
27428;SDS011;14881;48.092;11.574;2024-01-06T13:05:13;16.92;;;10.75;;
27428;SDS011;14881;48.092;11.574;2024-01-06T13:07:41;16.83;;;10.75;;
27428;SDS011;14881;48.092;11.574;2024-01-06T13:10:08;12.38;;;9.23;;
27428;SDS011;14881;48.092;11.574;2024-01-06T13:12:38;15.73;;;9.07;;
27428;SDS011;14881;48.092;11.574;2024-01-06T13:15:06;13.75;;;9.07;;
27428;SDS011;14881;48.092;11.574;2024-01-06T13:17:37;17.73;;;9.95;;
27428;SDS011;14881;48.092;11.574;2024-01-06T13:20:06;13.57;;;9.45;;
27428;SDS011;14881;48.092;11.574;2024-01-06T13:22:35;15.57;;;11.15;;
27428;SDS011;14881;48.092;11.574;2024-01-06T13:25:03;12.48;;;8.35;;
27428;SDS011;14881;48.092;11.574;2024-01-06T13:27:34;10.75;;;8.25;;
27428;SDS011;14881;48.092;11.574;2024-01-06T13:30:04;15.98;;;12.25;;
27428;SDS011;14881;48.092;11.574;2024-01-06T13:32:33;14.40;;;8.13;;
27428;SDS011;14881;48.092;11.574;2024-01-06T13:35:01;15.90;;;11.57;;
27428;SDS011;14881;48.092;11.574;2024-01-06T13:37:31;15.88;;;12.68;;
27428;SDS011;14881;48.092;11.574;2024-01-06T13:39:59;14.35;;;10.70;;
27428;SDS011;14881;48.092;11.574;2024-01-06T13:42:27;15.43;;;12.68;;
27428;SDS011;14881;48.092;11.574;2024-01-06T13:44:55;19.25;;;13.27;;
27428;SDS011;14881;48.092;11.574;2024-01-06T13:47:28;23.33;;;19.48;;
27428;SDS011;14881;48.092;11.574;2024-01-06T13:49:56;13.45;;;9.32;;
27428;SDS011;14881;48.092;11.574;2024-01-06T13:52:25;15.27;;;9.38;;
27428;SDS011;14881;48.092;11.574;2024-01-06T13:54:53;26.52;;;18.13;;
27428;SDS011;14881;48.092;11.574;2024-01-06T13:57:22;16.38;;;10.63;;
27428;SDS011;14881;48.092;11.574;2024-01-06T13:59:50;36.30;;;25.63;;
27428;SDS011;14881;48.092;11.574;2024-01-06T14:02:18;23.60;;;13.57;;
27428;SDS011;14881;48.092;11.574;2024-01-06T14:04:47;17.13;;;11.55;;
27428;SDS011;14881;48.092;11.574;2024-01-06T14:07:15;17.45;;;11.25;;
27428;SDS011;14881;48.092;11.574;2024-01-06T14:09:45;25.25;;;21.85;;
27428;SDS011;14881;48.092;11.574;2024-01-06T14:12:13;20.67;;;15.77;;
27428;SDS011;14881;48.092;11.574;2024-01-06T14:14:41;19.58;;;13.93;;
27428;SDS011;14881;48.092;11.574;2024-01-06T14:17:08;19.13;;;12.57;;
27428;SDS011;14881;48.092;11.574;2024-01-06T14:19:36;21.88;;;12.93;;
27428;SDS011;14881;48.092;11.574;2024-01-06T14:22:06;19.25;;;12.05;;
27428;SDS011;14881;48.092;11.574;2024-01-06T14:24:34;17.10;;;11.63;;
27428;SDS011;14881;48.092;11.574;2024-01-06T14:27:03;17.67;;;11.13;;
27428;SDS011;14881;48.092;11.574;2024-01-06T14:29:31;16.08;;;10.68;;
27428;SDS011;14881;48.092;11.574;2024-01-06T14:31:58;15.13;;;11.38;;